Time;durP1;ratioP1;P1;durP2;ratioP2;P2;SDS_P1;SDS_P2;PMS_P1;PMS_P2;Temp;Humidity;BMP_temperature;BMP_pressure;BME280_temperature;BME280_humidity;BME280_pressure;Samples;Min_cycle;Max_cycle;Signal;HPM_P1;HPM_P2
2023/08/06 00:01:52;;;;;;;1999.90;999.90;;;16.60;99.90;;;;;;5031973;28;20732;-68
2023/08/06 00:04:19;;;;;;;1999.90;999.90;;;16.50;99.90;;;;;;5032226;28;20176;-68
2023/08/06 00:06:44;;;;;;;1999.90;999.90;;;16.60;99.90;;;;;;5032334;28;20170;-69
2023/08/06 00:09:10;;;;;;;1999.90;999.90;;;16.50;99.90;;;;;;5032436;28;20824;-69
2023/08/06 00:11:36;;;;;;;1999.90;999.90;;;16.50;99.90;;;;;;5031862;28;20173;-68
2023/08/06 00:14:01;;;;;;;1999.90;999.90;;;16.50;99.90;;;;;;5032058;28;20234;-68
2023/08/06 00:16:27;;;;;;;1999.90;999.90;;;16.50;99.90;;;;;;5031599;28;20547;-68
2023/08/06 00:18:52;;;;;;;1999.90;999.90;;;16.40;99.90;;;;;;5032172;28;20174;-68
2023/08/06 00:21:18;;;;;;;1999.90;999.90;;;16.40;99.90;;;;;;5031818;28;20643;-68
2023/08/06 00:23:44;;;;;;;1999.90;999.90;;;16.40;99.90;;;;;;5032043;28;20199;-69
2023/08/06 00:26:09;;;;;;;1999.90;999.90;;;16.40;99.90;;;;;;5032063;28;20173;-69
2023/08/06 00:28:35;;;;;;;1999.90;999.90;;;16.50;99.90;;;;;;5031972;28;20176;-68
2023/08/06 00:31:00;;;;;;;1999.90;999.90;;;16.40;99.90;;;;;;5031813;28;20185;-69
2023/08/06 00:33:26;;;;;;;1999.90;999.90;;;16.40;99.90;;;;;;5031858;28;20219;-71
2023/08/06 00:35:51;;;;;;;1999.90;999.90;;;16.30;99.90;;;;;;5032035;28;20175;-69
2023/08/06 00:38:17;;;;;;;1999.90;999.90;;;16.30;99.90;;;;;;5032157;28;20164;-68
2023/08/06 00:40:43;;;;;;;1999.90;999.90;;;16.30;99.90;;;;;;5031949;28;20176;-68
2023/08/06 00:43:09;;;;;;;1999.90;999.90;;;16.30;99.90;;;;;;5031480;28;20570;-69
2023/08/06 00:45:37;;;;;;;1999.90;999.90;;;16.30;99.90;;;;;;5031832;28;20421;-68
2023/08/06 00:48:04;;;;;;;1999.90;999.90;;;16.30;99.90;;;;;;5031900;28;20417;-68
2023/08/06 00:50:30;;;;;;;1999.90;999.90;;;16.30;99.90;;;;;;5031757;28;20439;-68
2023/08/06 00:52:56;;;;;;;1999.90;999.90;;;16.30;99.90;;;;;;5031310;28;20516;-67
2023/08/06 00:55:22;;;;;;;1999.90;999.90;;;16.30;99.90;;;;;;5031686;28;20241;-68
2023/08/06 00:57:47;;;;;;;1999.90;999.90;;;16.30;99.90;;;;;;5031579;28;20404;-68
2023/08/06 01:00:13;;;;;;;1999.90;999.90;;;16.30;99.90;;;;;;5031915;28;20174;-69
2023/08/06 01:02:39;;;;;;;1999.90;999.90;;;16.30;99.90;;;;;;5031557;28;20199;-69
2023/08/06 01:05:05;;;;;;;1999.90;999.90;;;16.40;99.90;;;;;;5032010;28;20582;-69
2023/08/06 01:07:49;;;;;;;1999.90;999.90;;;16.30;99.90;;;;;;5031605;28;20582;-69
2023/08/06 01:10:39;;;;;;;1999.90;999.90;;;16.30;99.90;;;;;;5031659;28;20243;-68
2023/08/06 01:13:47;;;;;;;1999.90;999.90;;;16.20;99.90;;;;;;5031419;28;20535;-69
2023/08/06 01:16:16;;;;;;;1999.90;999.90;;;16.20;99.90;;;;;;5029493;28;20429;-69
2023/08/06 01:18:46;;;;;;;1999.90;999.90;;;16.20;99.90;;;;;;5029629;28;20420;-69
2023/08/06 01:21:15;;;;;;;1999.90;999.90;;;16.10;99.90;;;;;;5030357;28;20423;-69
2023/08/06 01:23:45;;;;;;;1999.90;999.90;;;16.10;99.90;;;;;;5031383;28;20434;-68
2023/08/06 01:26:43;;;;;;;1999.90;999.90;;;16.00;99.90;;;;;;5031509;28;20404;-68
2023/08/06 01:29:20;;;;;;;1999.90;999.90;;;15.90;99.90;;;;;;5034823;28;20480;-69
2023/08/06 01:31:50;;;;;;;1999.90;999.90;;;15.90;99.90;;;;;;5034817;28;20446;-69
2023/08/06 01:34:25;;;;;;;1999.90;999.90;;;15.90;99.90;;;;;;5035076;28;20511;-68
2023/08/06 01:36:52;;;;;;;1999.90;999.90;;;16.00;99.90;;;;;;5035001;28;20412;-68
2023/08/06 01:39:20;;;;;;;1999.90;999.90;;;15.90;99.90;;;;;;5035058;28;20446;-69
2023/08/06 01:41:47;;;;;;;1999.90;999.90;;;16.00;99.90;;;;;;5034410;28;20415;-68
2023/08/06 01:44:12;;;;;;;1999.90;999.90;;;16.00;99.90;;;;;;5034842;28;20419;-68
2023/08/06 01:46:38;;;;;;;1999.90;999.90;;;16.00;99.90;;;;;;5034792;28;20418;-70
2023/08/06 01:49:03;;;;;;;1999.90;999.90;;;15.90;99.90;;;;;;5034849;28;20176;-68
2023/08/06 01:51:29;;;;;;;1999.90;999.90;;;15.90;99.90;;;;;;5034454;28;20178;-68
2023/08/06 01:53:54;;;;;;;1999.90;999.90;;;15.90;99.90;;;;;;5034499;28;20195;-69
2023/08/06 01:56:20;;;;;;;1999.90;999.90;;;15.90;99.90;;;;;;5034677;28;20179;-68
2023/08/06 01:58:46;;;;;;;1999.90;999.90;;;16.00;99.90;;;;;;5034816;28;20628;-69
2023/08/06 02:01:11;;;;;;;1999.90;999.90;;;16.00;99.90;;;;;;5034284;28;20179;-68
2023/08/06 02:03:37;;;;;;;1999.90;999.90;;;16.10;99.90;;;;;;5034356;28;20199;-68
2023/08/06 02:06:02;;;;;;;1999.90;999.90;;;16.20;99.90;;;;;;5034502;28;20182;-68
2023/08/06 02:08:28;;;;;;;1999.90;999.90;;;16.30;99.90;;;;;;5034325;28;20178;-68
2023/08/06 02:10:53;;;;;;;1999.90;999.90;;;16.30;99.90;;;;;;5034140;28;20596;-69
2023/08/06 02:13:19;;;;;;;1999.90;999.90;;;16.30;99.90;;;;;;5034243;28;20199;-69
2023/08/06 02:15:47;;;;;;;1999.90;999.90;;;16.30;99.90;;;;;;5034322;28;20180;-68
2023/08/06 02:18:14;;;;;;;1999.90;999.90;;;16.30;99.90;;;;;;5034226;28;20168;-68
2023/08/06 02:20:40;;;;;;;1999.90;999.90;;;16.30;99.90;;;;;;5034134;28;20405;-68
2023/08/06 02:23:06;;;;;;;1999.90;999.90;;;16.30;99.90;;;;;;5033807;28;20434;-68
2023/08/06 02:25:31;;;;;;;1999.90;999.90;;;16.30;99.90;;;;;;5034033;28;20659;-68
2023/08/06 02:27:57;;;;;;;1999.90;999.90;;;16.20;99.90;;;;;;5034220;28;20173;-69
2023/08/06 02:30:22;;;;;;;1999.90;999.90;;;16.30;99.90;;;;;;5033907;28;20180;-68
2023/08/06 02:32:48;;;;;;;1999.90;999.90;;;16.30;99.90;;;;;;5033447;28;20651;-69
2023/08/06 02:35:13;;;;;;;1999.90;999.90;;;16.30;99.90;;;;;;5034045;28;20175;-69
2023/08/06 02:37:39;;;;;;;1999.90;999.90;;;16.30;99.90;;;;;;5033832;28;20175;-70
2023/08/06 02:40:05;;;;;;;1999.90;999.90;;;16.30;99.90;;;;;;5033208;28;20197;-68
2023/08/06 02:42:31;;;;;;;1999.90;999.90;;;16.30;99.90;;;;;;5033460;28;20240;-68
2023/08/06 02:44:56;;;;;;;1999.90;999.90;;;16.30;99.90;;;;;;5033698;28;20421;-68
2023/08/06 02:47:22;;;;;;;1999.90;999.90;;;16.40;99.90;;;;;;5033675;28;20182;-68
2023/08/06 02:49:47;;;;;;;1999.90;999.90;;;16.40;99.90;;;;;;5033624;28;20549;-68
2023/08/06 02:52:13;;;;;;;1999.90;999.90;;;16.40;99.90;;;;;;5033390;28;20225;-69
2023/08/06 02:54:38;;;;;;;1999.90;999.90;;;16.50;99.90;;;;;;5033479;28;20297;-68
2023/08/06 02:57:05;;;;;;;1999.90;999.90;;;16.50;99.90;;;;;;5033593;28;20170;-68
2023/08/06 02:59:31;;;;;;;1999.90;999.90;;;16.40;99.90;;;;;;5033509;28;20642;-68
2023/08/06 03:01:56;;;;;;;1999.90;999.90;;;16.50;99.90;;;;;;5032978;28;20518;-68
2023/08/06 03:04:22;;;;;;;1999.90;999.90;;;16.50;99.90;;;;;;5033557;28;20533;-69
2023/08/06 03:06:50;;;;;;;1999.90;999.90;;;16.50;99.90;;;;;;5033499;28;20217;-68
2023/08/06 03:09:16;;;;;;;1999.90;999.90;;;16.40;99.90;;;;;;5033468;28;20532;-68
2023/08/06 03:11:42;;;;;;;1999.90;999.90;;;16.40;99.90;;;;;;5032833;28;20500;-67
2023/08/06 03:14:07;;;;;;;1999.90;999.90;;;16.30;99.90;;;;;;5033054;28;20955;-68
2023/08/06 03:16:33;;;;;;;1999.90;999.90;;;16.30;99.90;;;;;;5033104;28;20168;-68
2023/08/06 03:18:58;;;;;;;1999.90;999.90;;;16.30;99.90;;;;;;5033107;28;20172;-68
2023/08/06 03:21:24;;;;;;;1999.90;999.90;;;16.30;99.90;;;;;;5032764;28;20217;-68
2023/08/06 03:23:50;;;;;;;1999.90;999.90;;;16.40;99.90;;;;;;5033036;28;20207;-67
2023/08/06 03:26:15;;;;;;;1999.90;999.90;;;16.40;99.90;;;;;;5032936;28;20179;-69
2023/08/06 03:28:41;;;;;;;1999.90;999.90;;;16.30;99.90;;;;;;5032850;28;20186;-68
2023/08/06 03:31:07;;;;;;;1999.90;999.90;;;16.30;99.90;;;;;;5032540;28;20172;-70
2023/08/06 03:33:32;;;;;;;1999.90;999.90;;;16.30;99.90;;;;;;5032710;28;20218;-69
2023/08/06 03:35:58;;;;;;;1999.90;999.90;;;16.30;99.90;;;;;;5032825;28;20174;-68
2023/08/06 03:38:24;;;;;;;1999.90;999.90;;;16.30;99.90;;;;;;5032773;28;20542;-67
2023/08/06 03:40:49;;;;;;;1999.90;999.90;;;16.40;99.90;;;;;;5032492;28;20171;-68
2023/08/06 03:43:15;;;;;;;1999.90;999.90;;;16.40;99.90;;;;;;5032422;28;20198;-68
2023/08/06 03:45:41;;;;;;;1999.90;999.90;;;16.40;99.90;;;;;;5032554;28;20703;-69
2023/08/06 03:48:07;;;;;;;1999.90;999.90;;;16.40;99.90;;;;;;5032647;28;20220;-69
2023/08/06 03:50:33;;;;;;;1999.90;999.90;;;16.40;99.90;;;;;;5031659;28;20421;-67
2023/08/06 03:52:59;;;;;;;1999.90;999.90;;;16.40;99.90;;;;;;5031966;28;20432;-68
2023/08/06 03:55:24;;;;;;;1999.90;999.90;;;16.40;99.90;;;;;;5032435;28;20258;-68
2023/08/06 03:57:50;;;;;;;1999.90;999.90;;;16.30;99.90;;;;;;5032452;28;20246;-69
2023/08/06 04:00:16;;;;;;;1999.90;999.90;;;16.30;99.90;;;;;;5032405;28;20200;-68
2023/08/06 04:02:41;;;;;;;1999.90;999.90;;;16.30;99.90;;;;;;5031966;28;20204;-69
2023/08/06 04:05:07;;;;;;;1999.90;999.90;;;16.40;99.90;;;;;;5032244;28;20206;-69
2023/08/06 04:07:33;;;;;;;1999.90;999.90;;;16.30;99.90;;;;;;5032150;28;20199;-68
2023/08/06 04:10:00;;;;;;;1999.90;999.90;;;16.40;99.90;;;;;;5032198;28;20489;-68
2023/08/06 04:12:27;;;;;;;1999.90;999.90;;;16.30;99.90;;;;;;5031753;28;20199;-68
2023/08/06 04:14:53;;;;;;;1999.90;999.90;;;16.30;99.90;;;;;;5032145;28;20458;-69
2023/08/06 04:17:20;;;;;;;1999.90;999.90;;;16.30;99.90;;;;;;5031312;28;20422;-68
2023/08/06 04:19:58;;;;;;;1999.90;999.90;;;16.30;99.90;;;;;;5029377;28;20926;-67
2023/08/06 04:22:24;;;;;;;1999.90;999.90;;;16.20;99.90;;;;;;5026791;28;20484;-69
2023/08/06 04:24:49;;;;;;;1999.90;999.90;;;16.30;99.90;;;;;;5032090;28;20418;-68
2023/08/06 04:27:16;;;;;;;1999.90;999.90;;;16.20;99.90;;;;;;5031984;28;20425;-69
2023/08/06 04:29:42;;;;;;;1999.90;999.90;;;16.30;99.90;;;;;;5031969;28;20179;-69
2023/08/06 04:32:09;;;;;;;1999.90;999.90;;;16.30;99.90;;;;;;5031465;28;20452;-68
2023/08/06 04:34:36;;;;;;;1999.90;999.90;;;16.30;99.90;;;;;;5031772;28;20457;-68
2023/08/06 04:37:03;;;;;;;1999.90;999.90;;;16.30;99.90;;;;;;5031782;28;20435;-67
2023/08/06 04:39:29;;;;;;;1999.90;999.90;;;16.30;99.90;;;;;;5031808;28;20410;-68
2023/08/06 04:41:57;;;;;;;1999.90;999.90;;;16.30;99.90;;;;;;5031425;28;20428;-71
2023/08/06 04:44:23;;;;;;;1999.90;999.90;;;16.30;99.90;;;;;;5031909;28;20551;-69
2023/08/06 04:46:49;;;;;;;1999.90;999.90;;;16.40;99.90;;;;;;5031739;28;20458;-68
2023/08/06 04:49:14;;;;;;;1999.90;999.90;;;16.40;99.90;;;;;;5031801;28;21196;-69
2023/08/06 04:51:40;;;;;;;1999.90;999.90;;;16.40;99.90;;;;;;5031358;28;20445;-68
2023/08/06 04:54:05;;;;;;;1999.90;999.90;;;16.40;99.90;;;;;;5031586;28;20339;-67
2023/08/06 04:56:32;;;;;;;1999.90;999.90;;;16.50;99.90;;;;;;5031880;28;20173;-69
2023/08/06 04:58:58;;;;;;;1999.90;999.90;;;16.50;99.90;;;;;;5030816;28;20177;-68
2023/08/06 05:01:24;;;;;;;1999.90;999.90;;;16.50;99.90;;;;;;5019825;28;20418;-68
2023/08/06 05:03:49;;;;;;;1999.90;999.90;;;16.50;99.90;;;;;;5034194;28;20833;-69
2023/08/06 05:06:15;;;;;;;1999.90;999.90;;;16.50;99.90;;;;;;5035585;28;20182;-67
2023/08/06 05:08:40;;;;;;;1999.90;999.90;;;16.50;99.90;;;;;;5035576;28;20743;-68
2023/08/06 05:11:06;;;;;;;1999.90;999.90;;;16.40;99.90;;;;;;5035366;28;20185;-68
2023/08/06 05:13:32;;;;;;;1999.90;999.90;;;16.50;99.90;;;;;;5035261;28;20207;-68
2023/08/06 05:15:58;;;;;;;1999.90;999.90;;;16.40;99.90;;;;;;5017629;28;20260;-67
2023/08/06 05:18:24;;;;;;;1999.90;999.90;;;16.50;99.90;;;;;;5035462;28;20176;-68
2023/08/06 05:20:50;;;;;;;1999.90;999.90;;;16.50;99.90;;;;;;5035149;28;20440;-68
2023/08/06 05:23:16;;;;;;;1999.90;999.90;;;16.50;99.90;;;;;;5035147;28;20193;-68
2023/08/06 05:25:42;;;;;;;1999.90;999.90;;;16.40;99.90;;;;;;5035202;28;20266;-68
2023/08/06 05:28:07;;;;;;;1999.90;999.90;;;16.40;99.90;;;;;;5035163;28;20855;-68
2023/08/06 05:30:33;;;;;;;1999.90;999.90;;;16.40;99.90;;;;;;5035102;28;20174;-68
2023/08/06 05:32:59;;;;;;;1999.90;999.90;;;16.50;99.90;;;;;;5035071;28;20248;-69
2023/08/06 05:35:24;;;;;;;1999.90;999.90;;;16.40;99.90;;;;;;5034959;28;20189;-69
2023/08/06 05:37:51;;;;;;;1999.90;999.90;;;16.40;99.90;;;;;;5034979;28;20583;-68
2023/08/06 05:40:16;;;;;;;1999.90;999.90;;;16.30;99.90;;;;;;5034974;28;20165;-68
2023/08/06 05:42:42;;;;;;;1999.90;999.90;;;16.30;99.90;;;;;;5034564;28;20419;-68
2023/08/06 05:45:08;;;;;;;1999.90;999.90;;;16.40;99.90;;;;;;5034837;28;20202;-67
2023/08/06 05:47:34;;;;;;;1999.90;999.90;;;16.40;99.90;;;;;;5034872;28;20634;-67
2023/08/06 05:49:59;;;;;;;1999.90;999.90;;;16.40;99.90;;;;;;5034604;28;20408;-69
2023/08/06 05:52:25;;;;;;;1999.90;999.90;;;16.40;99.90;;;;;;5034344;28;20206;-68
2023/08/06 05:54:51;;;;;;;1999.90;999.90;;;16.40;99.90;;;;;;5034520;28;20231;-68
2023/08/06 05:57:17;;;;;;;1999.90;999.90;;;16.40;99.90;;;;;;5034767;28;20638;-68
2023/08/06 05:59:43;;;;;;;1999.90;999.90;;;16.40;99.90;;;;;;5034635;28;20165;-68
2023/08/06 06:02:08;;;;;;;1999.90;999.90;;;16.40;99.90;;;;;;5034587;28;20809;-68
2023/08/06 06:04:34;;;;;;;1999.90;999.90;;;16.40;99.90;;;;;;5034663;28;20408;-68
2023/08/06 06:07:00;;;;;;;1999.90;999.90;;;16.40;99.90;;;;;;5034520;28;20192;-68
2023/08/06 06:09:25;;;;;;;1999.90;999.90;;;16.40;99.90;;;;;;5034534;28;20257;-69
2023/08/06 06:11:51;;;;;;;1999.90;999.90;;;16.40;99.90;;;;;;5033994;28;20193;-68
2023/08/06 06:14:17;;;;;;;1999.90;999.90;;;16.40;99.90;;;;;;5033325;28;20564;-69
2023/08/06 06:16:43;;;;;;;1999.90;999.90;;;16.50;99.90;;;;;;5034389;28;20193;-69
2023/08/06 06:19:09;;;;;;;1999.90;999.90;;;16.50;99.90;;;;;;5033389;28;20424;-69
2023/08/06 06:21:34;;;;;;;1999.90;999.90;;;16.50;99.90;;;;;;5029341;28;20180;-68
2023/08/06 06:24:00;;;;;;;1999.90;999.90;;;16.40;99.90;;;;;;5026055;28;20193;-68
2023/08/06 06:26:25;;;;;;;1999.90;999.90;;;16.30;99.90;;;;;;5034133;28;20262;-68
2023/08/06 06:28:51;;;;;;;1999.90;999.90;;;16.20;99.90;;;;;;5034101;28;20639;-68
2023/08/06 06:31:17;;;;;;;1999.90;999.90;;;16.10;99.90;;;;;;5033673;28;20172;-67
2023/08/06 06:33:42;;;;;;;1999.90;999.90;;;16.10;99.90;;;;;;5033799;28;20270;-68
2023/08/06 06:36:08;;;;;;;1999.90;999.90;;;16.10;99.90;;;;;;5033892;28;20211;-68
2023/08/06 06:38:34;;;;;;;1999.90;999.90;;;16.10;99.90;;;;;;5033942;28;20534;-67
2023/08/06 06:41:00;;;;;;;1999.90;999.90;;;16.10;99.90;;;;;;5033518;28;20246;-69
2023/08/06 06:43:26;;;;;;;1999.90;999.90;;;16.00;99.90;;;;;;5033714;28;21027;-68
2023/08/06 06:45:59;;;;;;;1999.90;999.90;;;15.90;99.90;;;;;;5030898;28;20190;-67
2023/08/06 06:48:27;;;;;;;1999.90;999.90;;;15.90;99.90;;;;;;5025382;28;20912;-67
2023/08/06 06:50:52;;;;;;;1999.90;999.90;;;15.80;99.90;;;;;;5034165;28;20433;-68
2023/08/06 06:53:18;;;;;;;1999.90;999.90;;;15.80;99.90;;;;;;5033403;28;20449;-68
2023/08/06 06:55:44;;;;;;;1999.90;999.90;;;15.70;99.90;;;;;;5033583;28;20171;-67
2023/08/06 06:58:09;;;;;;;1999.90;999.90;;;15.80;99.90;;;;;;5033477;28;20582;-68
2023/08/06 07:00:38;;;;;;;1999.90;999.90;;;15.80;99.90;;;;;;5033422;28;20206;-68
2023/08/06 07:03:04;;;;;;;1999.90;999.90;;;15.90;99.90;;;;;;5033119;28;20211;-68
2023/08/06 07:05:30;;;;;;;1999.90;999.90;;;15.90;99.90;;;;;;5033373;28;20814;-68
2023/08/06 07:07:55;;;;;;;1999.90;999.90;;;15.90;99.90;;;;;;5033288;28;20175;-68
2023/08/06 07:10:21;;;;;;;1999.90;999.90;;;15.90;99.90;;;;;;5033315;28;20180;-68
2023/08/06 07:12:46;;;;;;;1999.90;999.90;;;15.90;99.90;;;;;;5032822;28;20215;-67
2023/08/06 07:15:12;;;;;;;1999.90;999.90;;;16.00;99.90;;;;;;5032464;28;20284;-70
2023/08/06 07:17:38;;;;;;;1999.90;999.90;;;16.00;99.90;;;;;;5031439;28;20179;-68
2023/08/06 07:20:04;;;;;;;1999.90;999.90;;;16.00;99.90;;;;;;5029189;28;20189;-68
2023/08/06 07:22:29;;;;;;;1999.90;999.90;;;16.10;99.90;;;;;;5029256;28;20202;-67
2023/08/06 07:24:55;;;;;;;1999.90;999.90;;;16.20;99.90;;;;;;5029458;28;20496;-69
2023/08/06 07:27:21;;;;;;;1999.90;999.90;;;16.30;99.90;;;;;;5029559;28;20193;-67
2023/08/06 07:29:47;;;;;;;1999.90;999.90;;;16.30;99.90;;;;;;5020983;28;20196;-68
2023/08/06 07:32:13;;;;;;;1999.90;999.90;;;16.30;99.90;;;;;;5032412;28;20275;-68
2023/08/06 07:34:39;;;;;;;1999.90;999.90;;;16.20;99.90;;;;;;5032639;28;20469;-68
2023/08/06 07:37:05;;;;;;;1999.90;999.90;;;16.20;99.90;;;;;;5032739;28;20540;-68
2023/08/06 07:39:31;;;;;;;1999.90;999.90;;;16.30;99.90;;;;;;5031958;28;20570;-68
2023/08/06 07:41:56;;;;;;;1999.90;999.90;;;16.30;99.90;;;;;;5026689;28;20435;-68
2023/08/06 07:44:23;;;;;;;1999.90;999.90;;;16.30;99.90;;;;;;5027589;28;20174;-68
2023/08/06 07:46:49;;;;;;;1999.90;999.90;;;16.30;99.90;;;;;;5032185;28;20205;-68
2023/08/06 07:49:14;;;;;;;1999.90;999.90;;;16.30;99.90;;;;;;5032536;28;20823;-68
2023/08/06 07:51:40;;;;;;;1999.90;999.90;;;16.30;99.90;;;;;;5032212;28;20187;-68
2023/08/06 07:54:06;;;;;;;1999.90;999.90;;;16.40;99.90;;;;;;5041349;28;20544;-68
2023/08/06 07:56:32;;;;;;;1999.90;999.90;;;16.40;99.90;;;;;;5041302;28;20641;-68
2023/08/06 07:58:58;;;;;;;1999.90;999.90;;;16.40;99.90;;;;;;5042015;28;20431;-68
2023/08/06 08:01:23;;;;;;;1999.90;999.90;;;16.50;99.90;;;;;;5043646;28;20258;-68
2023/08/06 08:03:49;;;;;;;1999.90;999.90;;;16.50;99.90;;;;;;5039586;28;20206;-68
2023/08/06 08:06:14;;;;;;;1999.90;999.90;;;16.50;99.90;;;;;;5044629;28;20534;-67
2023/08/06 08:08:40;;;;;;;1999.90;999.90;;;16.40;99.90;;;;;;5042154;28;20258;-68
2023/08/06 08:11:06;;;;;;;1999.90;999.90;;;16.40;99.90;;;;;;5039709;28;20181;-68
2023/08/06 08:13:31;;;;;;;1999.90;999.90;;;16.40;99.90;;;;;;5040008;28;20693;-68
2023/08/06 08:15:58;;;;;;;1999.90;999.90;;;16.40;99.90;;;;;;5043431;28;20421;-68
2023/08/06 08:18:24;;;;;;;1999.90;999.90;;;16.40;99.90;;;;;;5041528;28;20266;-68
2023/08/06 08:20:49;;;;;;;1999.90;999.90;;;16.40;99.90;;;;;;5039586;28;20419;-68
2023/08/06 08:23:15;;;;;;;1999.90;999.90;;;16.50;99.90;;;;;;5041333;28;20204;-68
2023/08/06 08:25:40;;;;;;;1999.90;999.90;;;16.50;99.90;;;;;;5042148;28;20573;-68
2023/08/06 08:28:07;;;;;;;1999.90;999.90;;;16.60;99.90;;;;;;5040756;28;20237;-69
2023/08/06 08:30:33;;;;;;;1999.90;999.90;;;16.70;99.90;;;;;;5039493;28;20665;-67
2023/08/06 08:32:58;;;;;;;1999.90;999.90;;;16.70;99.90;;;;;;5045053;28;20459;-68
2023/08/06 08:35:24;;;;;;;1999.90;999.90;;;16.70;99.90;;;;;;5052002;28;20616;-68
2023/08/06 08:37:50;;;;;;;1999.90;999.90;;;16.80;99.90;;;;;;5051338;28;20228;-67
2023/08/06 08:40:16;;;;;;;1999.90;999.90;;;16.80;99.90;;;;;;5051992;28;20182;-68
2023/08/06 08:42:42;;;;;;;1999.90;999.90;;;16.90;99.90;;;;;;5051683;28;20437;-68
2023/08/06 08:45:13;;;;;;;1999.90;999.90;;;17.10;99.90;;;;;;5051755;28;20414;-68
2023/08/06 08:47:43;;;;;;;1999.90;999.90;;;17.20;99.90;;;;;;5051906;28;20416;-68
2023/08/06 08:50:10;;;;;;;1999.90;999.90;;;17.30;99.90;;;;;;5051941;28;20915;-68
2023/08/06 08:52:39;;;;;;;1999.90;999.90;;;17.30;99.90;;;;;;5040845;28;20890;-67
2023/08/06 08:55:06;;;;;;;1999.90;999.90;;;17.30;99.90;;;;;;5031431;28;20465;-68
2023/08/06 08:57:32;;;;;;;1999.90;999.90;;;17.30;99.90;;;;;;5031884;28;20420;-68
2023/08/06 08:59:57;;;;;;;1999.90;999.90;;;17.30;99.90;;;;;;5028546;28;20909;-67
2023/08/06 09:02:24;;;;;;;1999.90;999.90;;;17.30;99.90;;;;;;5026294;28;20200;-67
2023/08/06 09:04:51;;;;;;;1999.90;999.90;;;17.20;99.90;;;;;;5031764;28;20217;-68
2023/08/06 09:07:21;;;;;;;1999.90;999.90;;;17.20;99.90;;;;;;5031553;28;20422;-68
2023/08/06 09:09:49;;;;;;;1999.90;999.90;;;17.10;99.90;;;;;;5031576;28;20421;-67
2023/08/06 09:12:16;;;;;;;1999.90;999.90;;;16.80;99.90;;;;;;5031298;28;20422;-68
2023/08/06 09:14:42;;;;;;;1999.90;999.90;;;16.40;99.90;;;;;;5031518;28;20824;-68
2023/08/06 09:17:10;;;;;;;1999.90;999.90;;;16.30;99.90;;;;;;5033071;28;20409;-75
2023/08/06 09:19:36;;;;;;;1999.90;999.90;;;16.10;99.90;;;;;;5029265;28;20415;-74
2023/08/06 09:22:02;;;;;;;1999.90;999.90;;;16.00;99.90;;;;;;5029535;28;21016;-72
2023/08/06 09:24:28;;;;;;;1999.90;999.90;;;15.80;99.90;;;;;;5026758;28;20184;-73
2023/08/06 09:26:54;;;;;;;1999.90;999.90;;;15.60;99.90;;;;;;5026905;28;20472;-73
2023/08/06 09:29:20;;;;;;;1999.90;999.90;;;15.30;99.90;;;;;;5028954;28;20229;-72
2023/08/06 09:31:53;;;;;;;1999.90;999.90;;;15.00;99.90;;;;;;5027003;28;20838;-74
2023/08/06 09:34:22;;;;;;;1999.90;999.90;;;15.00;99.90;;;;;;5028317;28;20451;-73
2023/08/06 09:36:53;;;;;;;1999.90;999.90;;;14.80;99.90;;;;;;5027931;28;20438;-73
2023/08/06 09:39:29;;;;;;;1999.90;999.90;;;14.60;99.90;;;;;;5026787;28;20413;-72
2023/08/06 09:42:01;;;;;;;1999.90;999.90;;;14.60;99.90;;;;;;5008605;28;20449;-72
2023/08/06 09:44:28;;;;;;;1999.90;999.90;;;14.50;99.90;;;;;;5026800;28;20428;-72
2023/08/06 09:47:01;;;;;;;1999.90;999.90;;;14.40;99.90;;;;;;5027570;28;20430;-73
2023/08/06 09:49:41;;;;;;;1999.90;999.90;;;14.30;99.90;;;;;;5030694;28;20418;-73
2023/08/06 09:52:10;;;;;;;1999.90;999.90;;;14.20;99.90;;;;;;5033638;28;20521;-73
2023/08/06 09:54:38;;;;;;;1999.90;999.90;;;14.10;99.90;;;;;;5030239;28;20458;-72
2023/08/06 09:57:04;;;;;;;1999.90;999.90;;;14.10;99.90;;;;;;5038093;28;20437;-72
2023/08/06 09:59:31;;;;;;;1999.90;999.90;;;14.20;99.90;;;;;;5039453;28;20816;-71
2023/08/06 10:01:58;;;;;;;1999.90;999.90;;;14.20;99.90;;;;;;5039743;28;20488;-71
2023/08/06 10:04:24;;;;;;;1999.90;999.90;;;14.20;99.90;;;;;;5035321;28;20412;-72
2023/08/06 10:06:50;;;;;;;1999.90;999.90;;;14.10;99.90;;;;;;5039566;28;20481;-73
2023/08/06 10:09:16;;;;;;;1999.90;999.90;;;14.00;99.90;;;;;;5040101;28;20175;-75
2023/08/06 10:11:47;;;;;;;1999.90;999.90;;;13.40;99.90;;;;;;5031669;28;20931;-72
2023/08/06 10:14:19;;;;;;;1999.90;999.90;;;13.90;99.90;;;;;;5028505;28;20947;-73
2023/08/06 10:16:47;;;;;;;1999.90;999.90;;;13.90;99.90;;;;;;5030565;28;20784;-75
2023/08/06 10:19:15;;;;;;;1999.90;999.90;;;13.90;99.90;;;;;;5029691;28;20441;-73
2023/08/06 10:21:41;;;;;;;1999.90;999.90;;;14.10;99.90;;;;;;5031033;28;20424;-72
2023/08/06 10:24:14;;;;;;;1999.90;999.90;;;13.90;99.90;;;;;;5033797;28;20406;-74
2023/08/06 10:26:40;;;;;;;1999.90;999.90;;;13.90;99.90;;;;;;5033458;28;20859;-73
2023/08/06 10:29:38;;;;;;;1999.90;999.90;;;13.90;99.90;;;;;;5033529;28;20510;-72
2023/08/06 10:32:07;;;;;;;1999.90;999.90;;;13.90;99.90;;;;;;5024040;28;20260;-73
2023/08/06 10:34:56;;;;;;;1999.90;999.90;;;13.90;99.90;;;;;;5029362;28;21027;-73
2023/08/06 10:37:23;;;;;;;1999.90;999.90;;;13.90;99.90;;;;;;5028366;28;20418;-73
2023/08/06 10:39:52;;;;;;;1999.90;999.90;;;13.90;99.90;;;;;;5033592;28;20405;-73
2023/08/06 10:42:28;;;;;;;1999.90;999.90;;;13.90;99.90;;;;;;5032139;28;20453;-73
2023/08/06 10:45:13;;;;;;;1999.90;999.90;;;13.90;99.90;;;;;;5007668;28;20916;-74
2023/08/06 10:47:39;;;;;;;1999.90;999.90;;;14.00;99.90;;;;;;5033507;28;20845;-75
2023/08/06 10:50:07;;;;;;;1999.90;999.90;;;14.10;99.90;;;;;;5032971;28;20451;-75
2023/08/06 10:52:33;;;;;;;1999.90;999.90;;;14.00;99.90;;;;;;5032324;28;20466;-75
2023/08/06 10:54:59;;;;;;;1999.90;999.90;;;14.10;99.90;;;;;;5015305;28;20508;-75
2023/08/06 10:57:24;;;;;;;1999.90;999.90;;;14.10;99.90;;;;;;5032813;28;20418;-75
2023/08/06 10:59:50;;;;;;;1999.90;999.90;;;14.00;99.90;;;;;;5032680;28;20205;-75
2023/08/06 11:02:16;;;;;;;1999.90;999.90;;;14.00;99.90;;;;;;5032879;28;20272;-74
2023/08/06 11:04:42;;;;;;;1999.90;999.90;;;14.10;99.90;;;;;;5032976;28;20989;-75
2023/08/06 11:07:07;;;;;;;1999.90;999.90;;;14.20;99.90;;;;;;5033357;28;20231;-75
2023/08/06 11:09:33;;;;;;;1999.90;999.90;;;14.20;99.90;;;;;;5033160;28;20536;-74
2023/08/06 11:11:59;;;;;;;1999.90;999.90;;;14.30;99.90;;;;;;5032228;28;20199;-74
2023/08/06 11:14:24;;;;;;;1999.90;999.90;;;14.30;99.90;;;;;;5032554;28;20733;-76
2023/08/06 11:16:50;;;;;;;1999.90;999.90;;;14.30;99.90;;;;;;5032859;28;20183;-76
2023/08/06 11:19:16;;;;;;;1999.90;999.90;;;14.30;99.90;;;;;;5032399;28;20222;-76
2023/08/06 11:21:43;;;;;;;1999.90;999.90;;;14.30;99.90;;;;;;5032469;28;20199;-74
2023/08/06 11:24:10;;;;;;;1999.90;999.90;;;14.30;99.90;;;;;;5032650;28;20566;-75
2023/08/06 11:26:36;;;;;;;1999.90;999.90;;;14.30;99.90;;;;;;5032144;28;20403;-75
2023/08/06 11:29:03;;;;;;;1999.90;999.90;;;14.30;99.90;;;;;;5032580;28;20454;-74
2023/08/06 11:31:28;;;;;;;1999.90;999.90;;;14.30;99.90;;;;;;5033658;28;20965;-75
2023/08/06 11:33:55;;;;;;;1999.90;999.90;;;14.20;99.90;;;;;;5033872;28;20500;-75
2023/08/06 11:36:40;;;;;;;1999.90;999.90;;;14.30;99.90;;;;;;5034056;28;20173;-75
2023/08/06 11:39:06;;;;;;;1999.90;999.90;;;14.40;99.90;;;;;;5032745;28;20403;-75
2023/08/06 11:41:32;;;;;;;1999.90;999.90;;;14.50;99.90;;;;;;5032092;28;20900;-75
2023/08/06 11:43:59;;;;;;;1999.90;999.90;;;14.60;99.90;;;;;;5032198;28;20256;-75
2023/08/06 11:46:25;;;;;;;1999.90;999.90;;;14.70;99.90;;;;;;5032696;28;20429;-75
2023/08/06 11:48:58;;;;;;;1999.90;999.90;;;14.70;99.90;;;;;;5032339;28;20583;-75
2023/08/06 11:51:25;;;;;;;1999.90;999.90;;;14.70;99.90;;;;;;5032353;28;20425;-76
2023/08/06 11:53:55;;;;;;;1999.90;999.90;;;14.70;99.90;;;;;;5031932;28;20479;-74
2023/08/06 11:56:21;;;;;;;1999.90;999.90;;;14.70;99.90;;;;;;5032046;28;20405;-76
2023/08/06 11:58:47;;;;;;;1999.90;999.90;;;14.70;99.90;;;;;;5032024;28;20493;-76